Bendena, Kansas
Current Conditions -  °F | °C
As of 1:53 AM on Monday 26 Jan 2015 (Local Time) from KSTJ Reporting Station
Few Clouds Few Clouds  
Wind Chill: 16°   Ceiling: Unl
Heat Index: 24°   Visibility: 7mi
Dew Point: 23°   Wind: 7mph
Humidity: 96%   Direction: 170°S
Pressure: 30.09"   Gusts: NA
Location:  39.74°N, 95.18°W
Report Text: KSTJ 260753Z AUTO 17006KT 7SM FEW031 M04/M05 A3009 RMK AO2 SLP196 T10441050 $
Loading
Personal Weather Stations






























Interactive Weather Map New forecast layout! Learn more

10-Day Weather Forecast

Advertisements
Track Severe Weather on mobile